Latest Coastal Weather Observations for Eucla

IDS60701

Issued at 10:35 pm CST Wednesday 30 July 2014 (issued every 10 minutes, with the page automatically refreshed every 10 minutes)

About coastal observations | Map of coastal stations | Coastal observations for SA | Marine services | Other Formats
Station Details ID: 011003 Name: EUCLA Lat: -31.68 Lon: 128.90 Height: 93.1 m
Data from the previous 72 hours. | See also: Recent months at Eucla
Date/Time
CST
Temp

°C
Wind Pressure Rain
since 9am
mm
Weather Cloud Vis
km
Sea
Height
m
Swell
Dir
 
Speed
knots
Gust
knots
hPa Trend Height
m
Period
s
Dir
30/10:30pm 10.2 N 6 7 1015.8 - 0.0 - - - - - - -
30/10:00pm 11.4 WNW 6 7 1016.1 - 0.0 - - - - - - -
30/09:30pm 10.4 WSW 3 4 1016.5 - 0.0 - - - - - - -
30/09:00pm 12.3 SW 4 7 1016.6 - 0.0 - - - - - - -
30/08:30pm 11.2 WNW 4 5 1016.6 - 0.0 - - - - - - -
30/08:00pm 11.8 SW 4 4 1016.4 - 0.0 - - - - - - -
30/07:30pm 13.7 S 5 5 1016.5 - 0.0 - - - - - - -
30/07:00pm 16.5 WNW 6 9 1016.2 - 0.0 - - - - - - -
30/06:30pm 18.3 WNW 7 11 1015.9 - 0.0 - - - - - - -
30/06:00pm 19.6 W 9 14 1015.9 - 0.0 - - - - - - -
30/05:30pm 20.7 WNW 11 17 1015.7 - 0.0 - - - - - - -
30/05:00pm 21.4 WNW 12 17 1015.6 - 0.0 - - - - - - -
30/04:30pm 21.9 WNW 12 18 1015.7 - 0.0 Fine Clear 40 - - - -
30/04:00pm 22.2 NW 15 22 1015.7 - 0.0 - - - - - - -
30/03:30pm 22.0 WNW 13 23 1016.1 - 0.0 - - - - - - -
30/03:00pm 22.1 WNW 13 21 1016.6 - 0.0 - - - - - - -
30/02:30pm 21.7 WNW 13 21 1017.0 - 0.0 - - - - - - -
30/02:00pm 22.3 WNW 15 26 1017.3 - 0.0 - - - - - - -
30/01:30pm 21.4 WNW 15 21 1018.1 - 0.0 - - - - - - -
30/01:00pm 21.3 WNW 13 19 1018.6 - 0.0 - - - - - - -
30/12:30pm 21.0 WNW 12 20 1019.3 - 0.0 - - - - - - -
30/12:00pm 20.3 WNW 11 16 1020.0 - 0.0 - - - - - - -
30/11:30am 19.5 NW 11 16 1020.4 - 0.0 - - - - - - -
30/11:00am 18.1 NW 11 15 1020.6 - 0.0 - - - - - - -
30/10:30am 16.1 NNW 10 14 1020.9 - 0.0 Fine Clear 40 - - - -
30/10:00am 14.0 NNW 9 13 1020.9 - 0.0 - - - - - - -
30/09:30am 12.2 NNW 9 13 1020.9 - 0.0 - - - - - - -
30/09:00am 10.6 NNW 9 13 1020.9 - 0.0 - - - - - - -
30/08:30am 9.4 NNW 10 14 1020.9 - 0.0 - - - - - - -
30/08:00am 7.1 N 8 10 1020.8 - 0.0 - - - - - - -
30/07:30am 6.5 N 8 10 1020.6 - 0.0 - - - - - - -
30/07:00am 6.6 N 8 10 1020.6 - 0.0 - - - - - - -
30/06:30am 6.9 N 8 9 1020.5 - 0.0 - - - - - - -
30/06:00am 7.0 N 9 11 1020.5 - 0.0 - - - - - - -
30/05:30am 7.0 NNW 9 10 1020.6 - 0.0 - - - - - - -
30/05:00am 6.9 N 9 10 1020.6 - 0.0 - - - - - - -
30/04:30am 6.4 N 8 9 1020.8 - 0.0 - - - - - - -
30/04:00am 6.6 N 7 9 1020.8 - 0.0 - - - - - - -
30/03:30am 7.1 N 8 10 1020.9 - 0.0 - - - - - - -
30/03:00am 7.4 N 7 9 1021.1 - 0.0 - - - - - - -
30/02:30am 7.0 N 6 7 1021.4 - 0.0 - - - - - - -
30/02:00am 7.1 N 6 7 1021.8 - 0.0 - - - - - - -
30/01:30am 7.3 N 5 6 1021.8 - 0.0 - - - - - - -
30/01:00am 7.4 N 6 6 1022.0 - 0.0 - - - - - - -
30/12:30am 7.5 N 5 5 1022.3 - 0.0 - - - - - - -
30/12:00am 8.2 N 6 6 1022.5 - 0.0 - - - - - - -
 
Date/Time
CST
Temp

°C
Wind Pressure Rain
since 9am
mm
Weather Cloud Vis
km
Sea
Height
m
Swell
Dir
 
Speed
knots
Gust
knots
hPa Trend Height
m
Period
s
Dir
29/11:30pm 8.1 N 5 6 1022.6 - 0.0 - - - - - - -
29/11:00pm 8.1 N 5 6 1022.7 - 0.0 - - - - - - -
29/10:30pm 8.4 CALM 0 5 1022.8 - 0.0 - - - - - - -
29/10:00pm 8.4 CALM 0 0 1022.7 - 0.0 - - - - - - -
29/09:30pm 7.8 WSW 3 3 1022.7 - 0.0 - - - - - - -
29/09:00pm 11.2 SW 5 5 1022.7 - 0.0 - - - - - - -
29/08:30pm 11.7 SW 5 5 1022.5 - 0.0 - - - - - - -
29/08:00pm 12.0 SW 5 6 1022.2 - 0.0 - - - - - - -
29/07:30pm 12.3 SW 5 6 1022.0 - 0.0 - - - - - - -
29/07:00pm 12.6 SSW 5 6 1021.6 - 0.0 - - - - - - -
29/06:30pm 13.6 SSE 4 4 1021.1 - 0.0 - - - - - - -
29/06:00pm 16.2 S 4 7 1021.0 - 0.0 - - - - - - -
29/05:30pm 17.9 W 2 4 1021.0 - 0.0 - - - - - - -
29/05:00pm 17.6 S 7 9 1021.0 - 0.0 - - - - - - -
29/04:30pm 18.1 S 7 10 1020.8 - 0.0 Fine Mostly clear 40 - - - -
29/04:00pm 21.0 W 10 17 1020.7 - 0.0 - - - - - - -
29/03:30pm 21.2 W 11 17 1020.6 - 0.0 - - - - - - -
29/03:00pm 21.1 W 12 18 1020.6 - 0.0 - - - - - - -
29/02:30pm 20.8 W 11 18 1020.7 - 0.0 - - - - - - -
29/02:00pm 21.1 W 13 19 1020.9 - 0.0 - - - - - - -
29/01:30pm 20.4 W 12 20 1021.3 - 0.0 - - - - - - -
29/01:00pm 20.3 WNW 11 22 1021.7 - 0.0 - - - - - - -
29/12:30pm 19.8 W 11 18 1022.3 - 0.0 - - - - - - -
29/12:00pm 19.5 WNW 11 16 1022.6 - 0.0 - - - - - - -
29/11:30am 18.9 W 8 15 1023.0 - 0.0 - - - - - - -
29/11:00am 17.7 WNW 9 15 1023.1 - 0.0 - - - - - - -
29/10:30am 16.7 WNW 10 14 1023.1 - 0.0 Fine Clear 40 - - - -
29/10:00am 14.9 NW 9 14 1023.0 - 0.0 - - - - - - -
29/09:30am 13.0 NW 8 11 1022.8 - 0.0 - - - - - - -
29/09:00am 11.1 NW 8 12 1022.5 - 0.0 - - - - - - -
29/08:30am 9.4 NW 8 11 1022.3 - 0.0 - - - - - - -
29/08:00am 7.1 NNW 8 10 1021.9 - 0.0 - - - - - - -
29/07:30am 7.5 NNW 8 11 1021.5 - 0.0 - - - - - - -
29/07:00am 8.1 NNW 7 9 1021.2 - 0.0 - - - - - - -
29/06:30am 8.2 NW 7 9 1021.1 - 0.0 - - - - - - -
29/06:00am 8.1 NNW 8 10 1020.8 - 0.0 - - - - - - -
29/05:30am 7.7 NNW 7 9 1020.5 - 0.0 - - - - - - -
29/05:00am 8.0 NNW 7 9 1020.4 - 0.0 - - - - - - -
29/04:30am 7.7 NNW 6 9 1020.2 - 0.0 - - - - - - -
29/04:00am 8.0 NNW 7 9 1020.2 - 0.0 - - - - - - -
29/03:30am 8.9 NNW 7 10 1020.4 - 0.0 - - - - - - -
29/03:00am 9.8 NW 7 9 1020.6 - 0.0 - - - - - - -
29/02:30am 9.6 NW 7 12 1020.8 - 0.0 - - - - - - -
29/02:00am 8.8 NW 7 9 1020.8 - 0.0 - - - - - - -
29/01:30am 8.3 NNW 8 9 1020.7 - 0.0 - - - - - - -
29/01:00am 9.2 NNW 8 12 1020.7 - 0.0 - - - - - - -
29/12:30am 8.4 NNW 8 10 1020.9 - 0.0 - - - - - - -
29/12:00am 8.7 NNW 7 9 1021.1 - 0.0 - - - - - - -
 
Date/Time
CST
Temp

°C
Wind Pressure Rain
since 9am
mm
Weather Cloud Vis
km
Sea
Height
m
Swell
Dir
 
Speed
knots
Gust
knots
hPa Trend Height
m
Period
s
Dir
28/11:30pm 8.1 NNW 7 8 1021.1 - 0.0 - - - - - - -
28/11:00pm 7.7 N 5 6 1021.2 - 0.0 - - - - - - -
28/10:30pm 7.8 N 5 6 1021.3 - 0.0 - - - - - - -
28/10:00pm 7.6 N 5 6 1021.4 - 0.0 - - - - - - -
28/09:30pm 7.9 N 5 6 1021.4 - 0.0 - - - - - - -
28/09:00pm 8.4 WNW 3 4 1021.1 - 0.0 - - - - - - -
28/08:30pm 8.6 WNW 2 4 1020.7 - 0.0 - - - - - - -
28/08:00pm 10.1 WSW 4 4 1020.4 - 0.0 - - - - - - -
28/07:30pm 11.2 WSW 4 4 1020.0 - 0.0 - - - - - - -
28/07:00pm 12.7 SW 6 6 1019.7 - 0.0 - - - - - - -
28/06:30pm 13.7 SW 5 6 1019.4 - 0.0 - - - - - - -
28/06:00pm 14.8 SSW 6 8 1019.3 - 0.0 - - - - - - -
28/05:30pm 16.1 SSW 8 12 1019.2 - 0.0 - - - - - - -
28/05:00pm 19.8 W 13 20 1018.8 - 0.0 - - - - - - -
28/04:30pm 20.4 W 10 17 1018.7 - 0.0 Fine Mostly clear 40 - - - -
28/04:00pm 20.5 W 12 19 1018.4 - 0.0 - - - - - - -
28/03:30pm 20.4 WNW 12 20 1018.4 - 0.0 - - - - - - -
28/03:00pm 20.3 WNW 12 20 1018.5 - 0.0 - - - - - - -
28/02:30pm 20.1 WNW 12 19 1018.8 - 0.0 - - - - - - -
28/02:00pm 20.5 WNW 13 21 1019.1 - 0.0 - - - - - - -
28/01:30pm 20.2 WNW 10 16 1019.6 - 0.0 - - - - - - -
28/01:00pm 19.7 NW 9 14 1020.1 - 0.0 - - - - - - -
28/12:30pm 18.5 NNW 8 13 1020.7 - 0.0 - - - - - - -
28/12:00pm 16.8 NNW 9 13 1020.9 - 0.0 - - - - - - -
28/11:30am 15.7 NW 10 14 1021.3 - 0.0 - - - - - - -
28/11:00am 15.4 NW 10 14 1021.4 - 0.0 - - - - - - -
28/10:30am 14.3 NNW 8 13 1021.5 - 0.0 Fine Partly cloudy 40 - - - -
28/10:00am 12.6 NNW 9 11 1021.5 - 0.0 - - - - - - -
28/09:30am 11.6 NNW 9 12 1021.2 - 0.0 - - - - - - -
28/09:00am 10.9 NNW 9 12 1020.9 - 0.0 - - - - - - -
28/08:30am 10.6 N 8 10 1020.9 - 0.0 - - - - - - -
28/08:00am 10.4 N 8 11 1020.6 - 0.0 - - - - - - -
28/07:30am 10.4 N 7 10 1020.5 - 0.0 - - - - - - -
28/07:00am 10.3 N 7 9 1020.3 - 0.0 - - - - - - -
28/06:30am 10.5 N 6 8 1020.3 - 0.0 - - - - - - -
28/06:00am 10.6 N 6 8 1020.3 - 0.0 - - - - - - -
28/05:30am 10.7 N 6 8 1020.1 - 0.0 - - - - - - -
28/05:00am 10.6 N 6 7 1020.4 - 0.0 - - - - - - -
28/04:30am 10.8 N 5 8 1020.3 - 0.0 - - - - - - -
28/04:00am 10.8 N 6 7 1020.3 - 0.0 - - - - - - -
28/03:30am 10.7 N 5 6 1020.1 - 0.0 - - - - - - -
28/03:00am 10.7 N 5 6 1020.3 - 0.0 - - - - - - -
28/02:30am 10.7 N 5 6 1020.5 - 0.0 - - - - - - -
28/02:00am 10.8 N 5 5 1020.5 - 0.0 - - - - - - -
28/01:30am 11.0 NNW 4 5 1020.7 - 0.0 - - - - - - -
28/01:00am 11.1 N 4 4 1020.7 - 0.0 - - - - - - -
28/12:30am 11.4 N 3 5 1020.9 - 0.0 - - - - - - -

Other Formats:

Comma delimited format used in spreadsheet applications
http://www.bom.gov.au/fwo/IDS60701/IDS60701.94647.axf

JavaScript Object Notation format (JSON) in row-major order
http://www.bom.gov.au/fwo/IDS60701/IDS60701.94647.json